Time;durP1;ratioP1;P1;durP2;ratioP2;P2;SDS_P1;SDS_P2;PMS_P1;PMS_P2;Temp;Humidity;BMP_temperature;BMP_pressure;BME280_temperature;BME280_humidity;BME280_pressure;Samples;Min_cycle;Max_cycle;Signal;HPM_P1;HPM_P2
2022/05/08 00:01:06;;;;;;;2.95;2.75;;;16.10;99.90;;;;;;1898801;75;21120;-75
2022/05/08 00:03:58;;;;;;;4.65;2.90;;;16.10;99.90;;;;;;1886356;75;21592;-75
2022/05/08 00:06:49;;;;;;;3.27;2.98;;;16.10;99.90;;;;;;1915820;75;21105;-75
2022/05/08 00:09:40;;;;;;;3.55;3.10;;;16.10;99.90;;;;;;1909777;75;21916;-75
2022/05/08 00:12:31;;;;;;;3.30;2.85;;;16.20;99.90;;;;;;1896359;75;21581;-75
2022/05/08 00:15:24;;;;;;;5.78;3.00;;;16.20;99.90;;;;;;1906998;74;21038;-75
2022/05/08 00:18:16;;;;;;;3.95;3.20;;;16.20;99.90;;;;;;1888274;75;21090;-75
2022/05/08 00:21:08;;;;;;;3.30;3.00;;;16.20;99.90;;;;;;1913757;75;21087;-75
2022/05/08 00:23:59;;;;;;;3.72;3.33;;;16.20;99.90;;;;;;1904969;75;21102;-75
2022/05/08 00:26:52;;;;;;;4.75;3.27;;;16.20;99.90;;;;;;1895754;75;21063;-75
2022/05/08 00:29:44;;;;;;;3.52;3.12;;;16.20;99.90;;;;;;1900214;75;21227;-75
2022/05/08 00:32:35;;;;;;;4.25;2.83;;;16.20;99.90;;;;;;1901599;75;21133;-75
2022/05/08 00:35:27;;;;;;;2.92;2.62;;;16.20;99.90;;;;;;1883743;75;21051;-75
2022/05/08 00:38:18;;;;;;;3.15;2.80;;;16.10;99.90;;;;;;1884069;75;21121;-75
2022/05/08 00:41:10;;;;;;;4.03;2.85;;;16.10;99.90;;;;;;1890834;75;21214;-75
2022/05/08 00:44:01;;;;;;;3.15;2.70;;;16.10;99.90;;;;;;1887659;75;21064;-75
2022/05/08 00:46:53;;;;;;;4.72;3.52;;;16.00;99.90;;;;;;1914993;75;21190;-75
2022/05/08 00:49:44;;;;;;;3.90;3.05;;;16.00;99.90;;;;;;1891116;75;21159;-75
2022/05/08 00:52:38;;;;;;;3.72;3.00;;;15.90;99.90;;;;;;1885281;75;21188;-75
2022/05/08 00:55:29;;;;;;;3.60;3.30;;;15.80;99.90;;;;;;1896829;75;21175;-75
2022/05/08 00:58:22;;;;;;;5.95;3.20;;;15.80;99.90;;;;;;1889892;75;21492;-75
2022/05/08 01:01:14;;;;;;;3.20;2.90;;;15.80;99.90;;;;;;1909009;75;21124;-75
2022/05/08 01:04:05;;;;;;;3.85;3.30;;;15.70;99.90;;;;;;1894538;75;21133;-75
2022/05/08 01:06:57;;;;;;;3.60;3.12;;;15.80;99.90;;;;;;1896324;75;21051;-75
2022/05/08 01:09:48;;;;;;;3.52;3.22;;;15.70;99.90;;;;;;1895793;75;21048;-75
2022/05/08 01:12:44;;;;;;;4.33;3.02;;;15.70;99.90;;;;;;1896157;75;21122;-75
2022/05/08 01:15:41;;;;;;;5.40;3.20;;;15.70;99.90;;;;;;1906535;75;21115;-75
2022/05/08 01:18:33;;;;;;;4.95;3.12;;;15.60;99.90;;;;;;1887285;75;21051;-75
2022/05/08 01:21:31;;;;;;;4.10;2.98;;;15.50;99.90;;;;;;1901490;75;21130;-75
2022/05/08 01:24:22;;;;;;;;;;;15.50;99.90;;;;;;1898755;75;21185;-75
2022/05/08 01:27:13;;;;;;;3.60;2.85;;;15.50;99.90;;;;;;1901069;75;20143;-75
2022/05/08 01:30:06;;;;;;;3.33;3.02;;;15.50;99.90;;;;;;1903612;75;21222;-75
2022/05/08 01:33:00;;;;;;;3.50;3.20;;;15.50;99.90;;;;;;1900855;75;21087;-75
2022/05/08 01:38:36;;;;;;;3.83;3.47;;;15.40;99.90;;;;;;1920913;72;38349;-75
2022/05/08 01:41:46;;;;;;;3.92;3.50;;;15.60;99.90;;;;;;1887598;75;21070;-75
2022/05/08 01:44:57;;;;;;;4.10;3.17;;;15.50;99.90;;;;;;1887333;74;21113;-75
2022/05/08 01:51:16;;;;;;;3.87;3.08;;;15.40;99.90;;;;;;1908524;75;21522;-75
2022/05/08 01:54:08;;;;;;;3.90;3.52;;;15.40;99.90;;;;;;1898852;75;21104;-75
2022/05/08 01:57:00;;;;;;;3.80;3.40;;;15.20;99.90;;;;;;1894307;75;21034;-75
2022/05/08 01:59:51;;;;;;;4.05;3.20;;;15.10;99.90;;;;;;1904653;75;21047;-75
2022/05/08 02:02:44;;;;;;;3.77;3.42;;;15.00;99.90;;;;;;1909802;75;21047;-75
2022/05/08 02:05:35;;;;;;;6.03;3.92;;;14.90;99.90;;;;;;1889075;75;21083;-75
2022/05/08 02:08:26;;;;;;;3.95;3.55;;;14.80;99.90;;;;;;1898732;75;21144;-75
2022/05/08 02:11:18;;;;;;;5.83;3.52;;;14.90;99.90;;;;;;1882928;75;21062;-75
2022/05/08 02:14:09;;;;;;;4.28;3.75;;;14.90;99.90;;;;;;1889028;74;21097;-75
2022/05/08 02:19:42;;;;;;;4.17;3.65;;;14.90;99.90;;;;;;1961079;72;22180;-75
2022/05/08 02:22:52;;;;;;;4.40;4.00;;;15.00;99.90;;;;;;1917897;75;21055;-75
2022/05/08 02:26:01;;;;;;;4.42;3.67;;;14.90;99.90;;;;;;1917906;75;21545;-75
2022/05/08 02:28:53;;;;;;;5.78;3.40;;;14.90;99.90;;;;;;1938696;73;21106;-75
2022/05/08 02:32:03;;;;;;;3.80;3.30;;;14.90;99.90;;;;;;1922234;73;21138;-75
2022/05/08 02:34:54;;;;;;;3.90;3.02;;;14.80;99.90;;;;;;1934035;73;21120;-75
2022/05/08 02:37:48;;;;;;;5.17;3.30;;;14.70;99.90;;;;;;1917749;75;21062;-75
2022/05/08 02:40:38;;;;;;;4.80;3.42;;;14.70;99.90;;;;;;1932940;73;21169;-76
2022/05/08 02:43:29;;;;;;;5.45;3.00;;;14.70;99.90;;;;;;1922167;74;21063;-75
2022/05/08 02:46:20;;;;;;;4.87;3.35;;;14.70;99.90;;;;;;1945010;73;21098;-76
2022/05/08 02:49:11;;;;;;;3.50;3.15;;;14.70;99.90;;;;;;1919821;73;21170;-76
2022/05/08 02:52:03;;;;;;;3.58;3.20;;;14.70;99.90;;;;;;1917864;75;21152;-75
2022/05/08 02:54:54;;;;;;;5.92;3.12;;;14.70;99.90;;;;;;1917746;75;21111;-75
2022/05/08 03:01:01;;;;;;;4.65;3.92;;;14.60;99.90;;;;;;1924539;73;21055;-75
2022/05/08 03:03:52;;;;;;;4.72;3.85;;;14.60;99.90;;;;;;1917483;75;21109;-75
2022/05/08 03:06:43;;;;;;;4.25;3.85;;;14.50;99.90;;;;;;1933110;73;21098;-75
2022/05/08 03:09:35;;;;;;;4.45;3.92;;;14.40;99.90;;;;;;1936941;73;21199;-75
2022/05/08 03:12:26;;;;;;;6.28;3.95;;;14.50;99.90;;;;;;1942488;73;21113;-75
2022/05/08 03:15:18;;;;;;;4.62;3.60;;;14.40;99.90;;;;;;1919195;73;21094;-75
2022/05/08 03:18:09;;;;;;;4.20;3.60;;;14.40;99.90;;;;;;1920459;73;21049;-75
2022/05/08 03:21:03;;;;;;;4.08;3.67;;;14.50;99.90;;;;;;1926805;73;21051;-77
2022/05/08 03:23:55;;;;;;;5.47;3.77;;;14.50;99.90;;;;;;1909073;74;21063;-77
2022/05/08 03:26:47;;;;;;;4.58;4.00;;;14.50;99.90;;;;;;1927045;74;21191;-76
2022/05/08 03:32:18;;;;;;;4.50;4.05;;;14.40;99.90;;;;;;1941780;72;22246;-75
2022/05/08 03:35:27;;;;;;;4.35;3.85;;;14.40;99.90;;;;;;1912496;75;21108;-75
2022/05/08 03:38:38;;;;;;;4.45;4.08;;;14.40;99.90;;;;;;1890674;75;21094;-75
2022/05/08 03:41:29;;;;;;;4.62;4.22;;;14.30;99.90;;;;;;1917675;75;21328;-75
2022/05/08 03:44:40;;;;;;;5.67;4.00;;;14.40;99.90;;;;;;1915736;74;21059;-75
2022/05/08 03:47:31;;;;;;;4.62;4.20;;;14.30;99.90;;;;;;1901105;75;21482;-74
2022/05/08 03:50:23;;;;;;;4.33;3.80;;;14.30;99.90;;;;;;1899983;74;21101;-74
2022/05/08 03:53:14;;;;;;;4.45;4.05;;;14.30;99.90;;;;;;1919109;74;21146;-74
2022/05/08 03:56:08;;;;;;;5.08;4.17;;;14.30;99.90;;;;;;1918253;74;21141;-76
2022/05/08 03:59:00;;;;;;;6.12;3.87;;;14.30;99.90;;;;;;1904056;75;21121;-75
2022/05/08 04:01:54;;;;;;;6.90;3.90;;;14.30;99.90;;;;;;1917149;75;21102;-75
2022/05/08 04:04:44;;;;;;;7.60;3.77;;;14.20;99.90;;;;;;1919943;74;21141;-75
2022/05/08 04:07:38;;;;;;;4.17;3.80;;;14.20;99.90;;;;;;1917675;74;21093;-75
2022/05/08 04:10:29;;;;;;;4.37;3.67;;;14.20;99.90;;;;;;1893546;74;21524;-76
2022/05/08 04:13:21;;;;;;;6.90;4.00;;;14.20;99.90;;;;;;1909663;75;21185;-75
2022/05/08 04:16:19;;;;;;;5.53;3.98;;;14.20;99.90;;;;;;1898399;74;21050;-75
2022/05/08 04:19:10;;;;;;;4.17;3.50;;;14.10;99.90;;;;;;1909207;74;21090;-75
2022/05/08 04:25:11;;;;;;;4.42;3.70;;;14.00;99.90;;;;;;1894420;75;21117;-75
2022/05/08 04:28:02;;;;;;;4.40;3.77;;;14.00;99.90;;;;;;1894157;75;21101;-76
2022/05/08 04:30:54;;;;;;;4.65;4.17;;;13.90;99.90;;;;;;1902915;74;21116;-76
2022/05/08 04:33:45;;;;;;;6.08;4.20;;;13.80;99.90;;;;;;1918231;74;21112;-75
2022/05/08 04:36:36;;;;;;;4.15;3.65;;;13.80;99.90;;;;;;1900995;74;21066;-75
2022/05/08 04:42:10;;;;;;;6.40;3.55;;;13.70;99.90;;;;;;1962312;72;22247;-75
2022/05/08 04:45:19;;;;;;;4.08;3.67;;;13.70;99.90;;;;;;1917760;75;21160;-75
2022/05/08 04:48:31;;;;;;;6.05;4.20;;;13.70;99.90;;;;;;1920302;73;21111;-75
2022/05/08 04:51:22;;;;;;;4.75;4.05;;;13.50;99.90;;;;;;1921869;73;21051;-75
2022/05/08 04:54:32;;;;;;;16.20;3.85;;;13.50;99.90;;;;;;1917713;75;21091;-75
2022/05/08 04:57:23;;;;;;;5.03;4.20;;;13.50;99.90;;;;;;1915525;73;21111;-77
2022/05/08 05:00:17;;;;;;;5.17;3.90;;;13.50;99.90;;;;;;1930388;73;21124;-75
2022/05/08 05:03:08;;;;;;;5.00;3.52;;;13.50;99.90;;;;;;1926233;73;21050;-75
2022/05/08 05:06:00;;;;;;;4.10;3.70;;;13.40;99.90;;;;;;1925342;73;21093;-75
2022/05/08 05:08:51;;;;;;;4.37;3.50;;;13.50;99.90;;;;;;1938529;73;21161;-75
2022/05/08 05:11:42;;;;;;;5.03;3.47;;;13.50;99.90;;;;;;1939056;73;21546;-75
2022/05/08 05:17:13;;;;;;;4.42;3.67;;;13.50;99.90;;;;;;1958458;72;22111;-75
2022/05/08 05:20:23;;;;;;;5.90;3.77;;;13.60;99.90;;;;;;1907176;75;21185;-78
2022/05/08 05:23:35;;;;;;;4.97;3.45;;;13.60;99.90;;;;;;1898208;75;21087;-76
2022/05/08 05:26:27;;;;;;;4.72;4.10;;;13.70;99.90;;;;;;1885506;75;21157;-76
2022/05/08 05:29:36;;;;;;;4.85;3.72;;;13.70;99.90;;;;;;1902887;75;21113;-75
2022/05/08 05:32:28;;;;;;;5.42;3.80;;;13.80;99.90;;;;;;1897079;75;21055;-75
2022/05/08 05:35:19;;;;;;;5.28;3.75;;;13.80;99.90;;;;;;1906394;75;21047;-75
2022/05/08 05:38:10;;;;;;;4.50;3.80;;;13.90;99.90;;;;;;1911686;73;21090;-75
2022/05/08 05:41:02;;;;;;;7.15;4.37;;;13.90;99.90;;;;;;1892061;73;21129;-75
2022/05/08 05:43:54;;;;;;;5.97;4.10;;;14.00;99.90;;;;;;1884830;75;21090;-75
2022/05/08 05:52:37;;;;;;;4.78;4.30;;;14.30;99.90;;;;;;1953703;72;22087;-75
2022/05/08 05:55:47;;;;;;;6.70;4.12;;;14.30;99.90;;;;;;1902128;75;21096;-76
2022/05/08 05:58:56;;;;;;;7.67;4.33;;;14.40;99.90;;;;;;1898472;75;21137;-76
2022/05/08 06:01:48;;;;;;;6.03;4.72;;;14.50;99.90;;;;;;1909213;75;21135;-76
2022/05/08 06:04:58;;;;;;;6.47;4.10;;;14.60;99.90;;;;;;1914614;75;21071;-76
2022/05/08 06:07:50;;;;;;;4.45;3.92;;;14.70;99.90;;;;;;1894136;75;21046;-76
2022/05/08 06:10:44;;;;;;;11.20;4.37;;;14.70;99.90;;;;;;1903625;75;21091;-76
2022/05/08 06:13:36;;;;;;;4.08;3.67;;;14.70;99.90;;;;;;1896882;75;21125;-76
2022/05/08 06:16:31;;;;;;;5.58;4.80;;;14.70;99.90;;;;;;1902051;75;21051;-76
2022/05/08 06:19:23;;;;;;;7.03;4.60;;;14.70;99.90;;;;;;1914552;75;21110;-76
2022/05/08 06:22:16;;;;;;;5.08;4.58;;;14.80;99.90;;;;;;1906353;74;21096;-76
2022/05/08 06:25:09;;;;;;;6.35;4.40;;;14.90;99.90;;;;;;1907103;75;21103;-76
2022/05/08 06:28:02;;;;;;;5.20;4.70;;;14.90;99.90;;;;;;1888999;75;21070;-76
2022/05/08 06:30:53;;;;;;;8.65;4.85;;;14.90;99.90;;;;;;1900633;73;21159;-76
2022/05/08 06:33:46;;;;;;;6.58;4.92;;;15.00;99.90;;;;;;1894521;75;21202;-77
2022/05/08 06:39:17;;;;;;;6.42;4.90;;;15.10;99.90;;;;;;1974205;72;22276;-76
2022/05/08 06:42:26;;;;;;;5.50;4.70;;;15.20;99.90;;;;;;1939271;73;21119;-75
2022/05/08 06:45:38;;;;;;;6.37;4.75;;;15.30;99.90;;;;;;1941479;73;21703;-75
2022/05/08 06:48:29;;;;;;;4.97;4.47;;;15.40;99.90;;;;;;1929784;73;21148;-76
2022/05/08 06:54:19;;;;;;;5.35;4.62;;;15.50;99.90;;;;;;1951806;72;22162;-75
2022/05/08 06:57:29;;;;;;;7.42;4.67;;;15.60;99.90;;;;;;1896346;75;21078;-76
2022/05/08 07:03:48;;;;;;;5.03;4.17;;;15.80;99.90;;;;;;1892159;75;21054;-78
2022/05/08 07:06:57;;;;;;;6.65;4.72;;;15.90;99.90;;;;;;1895165;75;21061;-80
2022/05/08 07:09:48;;;;;;;4.97;4.58;;;15.90;99.90;;;;;;1897030;75;21055;-79
2022/05/08 07:12:40;;;;;;;4.75;4.35;;;16.00;99.90;;;;;;1888327;75;21506;-80
2022/05/08 07:15:31;;;;;;;6.70;5.80;;;16.00;99.90;;;;;;1895922;75;21059;-80
2022/05/08 07:18:24;;;;;;;6.90;5.37;;;16.10;99.90;;;;;;1883455;75;21321;-79
2022/05/08 07:21:16;;;;;;;4.95;4.45;;;16.10;99.90;;;;;;1899431;75;21128;-79
2022/05/08 07:24:09;;;;;;;5.22;4.72;;;16.10;99.90;;;;;;1892850;75;21546;-79
2022/05/08 07:27:01;;;;;;;5.60;4.35;;;16.20;99.90;;;;;;1901028;75;21176;-79
2022/05/08 07:29:53;;;;;;;5.35;4.80;;;16.20;99.90;;;;;;1904546;75;21123;-78
2022/05/08 07:32:50;;;;;;;4.90;4.45;;;16.30;99.90;;;;;;1890863;73;21059;-78
2022/05/08 07:38:55;;;;;;;4.40;4.00;;;16.20;99.90;;;;;;1893340;75;21093;-79
2022/05/08 07:41:47;;;;;;;5.72;4.37;;;16.30;99.90;;;;;;1934094;73;21572;-80
2022/05/08 07:44:39;;;;;;;4.95;4.45;;;16.30;99.90;;;;;;1903779;73;21121;-79
2022/05/08 07:47:31;;;;;;;5.65;3.95;;;16.40;99.90;;;;;;1906487;75;21098;-79
2022/05/08 07:50:23;;;;;;;5.75;4.25;;;16.40;99.90;;;;;;1904623;75;21487;-80
2022/05/08 07:53:15;;;;;;;4.65;4.20;;;16.50;99.90;;;;;;1897150;74;21074;-80
2022/05/08 07:56:07;;;;;;;4.50;3.85;;;16.40;99.90;;;;;;1882781;75;21120;-80
2022/05/08 07:58:59;;;;;;;5.05;4.55;;;16.50;99.90;;;;;;1895359;75;21059;-79
2022/05/08 08:01:50;;;;;;;5.25;4.75;;;16.60;99.90;;;;;;1896442;75;21234;-80
2022/05/08 08:04:42;;;;;;;5.10;4.58;;;16.70;99.90;;;;;;1883769;75;21061;-80
2022/05/08 08:07:34;;;;;;;4.37;4.00;;;16.80;99.90;;;;;;1885179;75;21126;-80
2022/05/08 08:10:26;;;;;;;4.97;4.45;;;16.80;99.90;;;;;;1877067;75;21090;-80
2022/05/08 08:13:17;;;;;;;5.75;4.72;;;16.90;99.90;;;;;;1911160;75;21117;-79
2022/05/08 08:16:10;;;;;;;5.78;5.12;;;17.00;99.90;;;;;;1927886;73;21128;-79
2022/05/08 08:19:06;;;;;;;6.00;5.17;;;17.20;99.90;;;;;;1867801;75;21141;-80
2022/05/08 08:22:01;;;;;;;5.53;4.97;;;17.30;99.90;;;;;;1893180;75;21545;-79
2022/05/08 08:24:52;;;;;;;5.80;4.97;;;17.30;99.90;;;;;;1881398;75;21135;-79
2022/05/08 08:27:43;;;;;;;5.10;4.60;;;17.50;99.90;;;;;;1897381;75;21099;-79
2022/05/08 08:30:36;;;;;;;6.12;4.65;;;17.50;99.90;;;;;;1888212;75;21055;-80
2022/05/08 08:33:30;;;;;;;5.62;4.95;;;17.50;99.90;;;;;;1885844;75;22471;-79
2022/05/08 08:36:22;;;;;;;6.50;5.03;;;17.60;99.90;;;;;;1897869;75;21079;-79
2022/05/08 08:39:13;;;;;;;4.92;4.53;;;17.60;99.90;;;;;;1873558;75;21530;-80
2022/05/08 08:42:10;;;;;;;4.70;4.30;;;17.60;99.90;;;;;;1884040;75;21150;-79
2022/05/08 08:48:16;;;;;;;5.30;4.55;;;17.90;99.90;;;;;;1872007;77;21220;-80
2022/05/08 08:51:07;;;;;;;5.03;4.25;;;17.90;99.90;;;;;;1901382;75;21058;-79
2022/05/08 08:53:59;;;;;;;5.35;3.92;;;18.00;99.90;;;;;;1886027;74;21171;-79
2022/05/08 08:56:52;;;;;;;4.45;4.05;;;18.00;99.90;;;;;;1897360;74;21548;-79
2022/05/08 08:59:45;;;;;;;4.30;3.90;;;18.10;99.90;;;;;;1915654;74;21071;-79
2022/05/08 09:02:36;;;;;;;5.10;4.60;;;18.20;99.90;;;;;;1912916;74;21038;-79
2022/05/08 09:05:28;;;;;;;4.85;4.35;;;18.30;99.90;;;;;;1893614;74;21080;-79
2022/05/08 09:08:30;;;;;;;4.75;4.30;;;18.50;99.90;;;;;;1893514;74;21068;-79
2022/05/08 09:11:35;;;;;;;4.87;4.37;;;18.60;99.90;;;;;;1899435;74;21151;-79
2022/05/08 09:14:34;;;;;;;6.55;4.08;;;18.70;99.90;;;;;;1921210;74;21171;-80
2022/05/08 09:17:28;;;;;;;4.80;4.40;;;18.80;99.90;;;;;;1893955;74;21159;-80
2022/05/08 09:20:32;;;;;;;5.62;4.28;;;18.80;99.90;;;;;;1908371;74;21146;-80
2022/05/08 09:23:25;;;;;;;3.67;3.37;;;18.90;99.90;;;;;;1909365;74;21123;-79
2022/05/08 09:26:17;;;;;;;3.95;3.62;;;18.70;99.90;;;;;;1903784;73;21053;-80
2022/05/08 09:29:12;;;;;;;5.20;3.98;;;18.70;99.90;;;;;;1925993;73;21574;-84
2022/05/08 09:32:05;;;;;;;5.03;4.00;;;18.40;99.90;;;;;;1918234;73;21047;-78
2022/05/08 09:34:57;;;;;;;4.28;3.77;;;18.40;99.90;;;;;;1915346;74;21105;-78
2022/05/08 09:37:56;;;;;;;4.28;3.87;;;18.40;99.90;;;;;;1916161;74;21066;-78
2022/05/08 09:43:32;;;;;;;3.92;3.50;;;18.50;99.90;;;;;;1941675;72;22193;-77
2022/05/08 09:46:43;;;;;;;4.22;3.83;;;18.60;99.90;;;;;;1907351;74;21616;-78
2022/05/08 09:49:53;;;;;;;5.62;4.05;;;18.60;99.90;;;;;;1916558;74;21113;-79
2022/05/08 09:52:45;;;;;;;5.67;4.03;;;18.60;99.90;;;;;;1917441;75;21042;-79
2022/05/08 09:55:58;;;;;;;4.80;3.85;;;18.70;99.90;;;;;;1916663;75;21134;-78
2022/05/08 09:58:51;;;;;;;4.62;3.80;;;18.80;99.90;;;;;;1905834;75;21046;-79
2022/05/08 10:01:43;;;;;;;4.72;3.83;;;19.00;99.90;;;;;;1920315;74;21546;-79
2022/05/08 10:04:36;;;;;;;3.87;3.40;;;19.20;99.90;;;;;;1921230;74;21211;-79
2022/05/08 10:07:33;;;;;;;5.40;3.70;;;19.30;99.90;;;;;;1920792;74;21097;-79
2022/05/08 10:14:07;;;;;;;5.05;3.70;;;19.50;99.90;;;;;;1917067;74;21550;-79
2022/05/08 10:17:06;;;;;;;4.25;3.17;;;19.60;99.90;;;;;;1906956;74;21131;-78
2022/05/08 10:19:58;;;;;;;3.98;2.83;;;19.60;99.90;;;;;;1917480;75;21045;-78
2022/05/08 10:22:52;;;;;;;3.87;3.40;;;19.60;99.90;;;;;;1917538;75;21177;-78
2022/05/08 10:25:45;;;;;;;3.25;2.95;;;19.80;99.90;;;;;;1917471;74;21171;-78
2022/05/08 10:28:58;;;;;;;3.40;3.10;;;19.90;99.90;;;;;;1918940;74;21112;-78
2022/05/08 10:31:51;;;;;;;3.47;3.15;;;19.80;99.90;;;;;;1907161;75;21034;-79
2022/05/08 10:34:44;;;;;;;5.12;3.58;;;19.80;99.90;;;;;;1920389;74;21497;-79
2022/05/08 10:37:36;;;;;;;3.33;3.02;;;19.80;99.90;;;;;;1917622;75;21085;-79
2022/05/08 10:40:39;;;;;;;3.42;3.12;;;20.00;99.90;;;;;;1902114;74;21620;-78
2022/05/08 10:43:32;;;;;;;3.08;2.80;;;19.80;99.90;;;;;;1899453;74;21183;-78
2022/05/08 10:46:25;;;;;;;4.08;2.85;;;19.90;99.90;;;;;;1915599;74;21109;-78
2022/05/08 10:49:17;;;;;;;3.25;2.98;;;20.00;99.90;;;;;;1887868;74;21063;-78
2022/05/08 10:52:11;;;;;;;3.08;2.77;;;20.10;99.90;;;;;;1918244;74;21067;-78
2022/05/08 10:55:07;;;;;;;4.40;2.98;;;20.20;99.90;;;;;;1901946;74;21545;-78
2022/05/08 10:58:00;;;;;;;3.83;3.50;;;20.40;99.90;;;;;;1895559;75;21093;-78
2022/05/08 11:00:57;;;;;;;5.10;3.33;;;20.60;99.90;;;;;;1918262;74;21062;-78
2022/05/08 11:03:48;;;;;;;4.05;3.20;;;20.70;99.90;;;;;;1921042;74;21125;-78
2022/05/08 11:06:40;;;;;;;3.50;3.20;;;20.90;99.90;;;;;;1916822;75;21117;-78
2022/05/08 11:09:35;;;;;;;3.70;3.30;;;20.80;99.90;;;;;;1900887;74;21553;-78
2022/05/08 11:12:28;;;;;;;5.67;3.20;;;20.90;99.90;;;;;;1894130;74;21171;-79
2022/05/08 11:15:24;;;;;;;3.33;2.70;;;21.10;99.90;;;;;;1920701;74;21051;-78
2022/05/08 11:18:19;;;;;;;3.80;3.50;;;21.10;99.90;;;;;;1840823;77;21176;-78
2022/05/08 11:21:11;;;;;;;3.70;3.40;;;21.30;99.90;;;;;;1911959;75;21178;-81
2022/05/08 11:24:04;;;;;;;4.10;3.70;;;21.30;99.90;;;;;;1909099;74;21604;-80
2022/05/08 11:29:35;;;;;;;3.55;3.25;;;21.10;99.90;;;;;;1928782;72;22261;-78
2022/05/08 11:36:25;;;;;;;3.47;3.17;;;21.20;99.90;;;;;;1931472;73;21160;-78
2022/05/08 11:39:19;;;;;;;3.40;3.10;;;21.30;99.90;;;;;;1917416;75;21054;-78
2022/05/08 11:42:29;;;;;;;4.30;3.30;;;21.20;99.90;;;;;;1910390;75;21620;-78
2022/05/08 11:45:21;;;;;;;3.47;3.17;;;21.10;99.90;;;;;;1917341;75;21537;-79
2022/05/08 11:48:12;;;;;;;3.02;2.83;;;21.00;99.90;;;;;;1914201;75;21120;-78
2022/05/08 11:51:04;;;;;;;3.72;2.90;;;21.00;99.90;;;;;;1914879;75;21105;-79
2022/05/08 11:53:55;;;;;;;2.80;2.58;;;21.00;99.90;;;;;;1915385;75;21327;-79
2022/05/08 11:56:51;;;;;;;3.22;2.95;;;21.10;99.90;;;;;;1916508;75;21106;-78
2022/05/08 11:59:41;;;;;;;3.40;3.10;;;20.90;99.90;;;;;;1898670;75;21052;-78
2022/05/08 12:02:41;;;;;;;3.17;2.77;;;21.10;99.90;;;;;;1916486;75;21584;-78
2022/05/08 12:05:34;;;;;;;4.05;2.67;;;21.10;99.90;;;;;;1916853;75;21039;-78
2022/05/08 12:08:26;;;;;;;3.10;2.80;;;21.10;99.90;;;;;;1914719;75;21099;-78
2022/05/08 12:11:32;;;;;;;3.00;2.80;;;21.10;99.90;;;;;;1915032;75;21180;-79
2022/05/08 12:14:32;;;;;;;3.45;3.15;;;21.00;99.90;;;;;;1904524;75;21043;-78
2022/05/08 12:17:24;;;;;;;3.02;2.72;;;21.20;99.90;;;;;;1915622;75;21146;-79
2022/05/08 12:20:17;;;;;;;3.02;2.80;;;21.30;99.90;;;;;;1915390;75;21192;-78
2022/05/08 12:23:10;;;;;;;4.45;2.70;;;21.20;99.90;;;;;;1916835;75;21055;-79
2022/05/08 12:26:02;;;;;;;3.33;2.70;;;21.50;99.90;;;;;;1900898;75;21086;-79
2022/05/08 12:28:53;;;;;;;2.98;2.70;;;21.70;99.90;;;;;;1922490;73;21117;-79
2022/05/08 12:31:46;;;;;;;4.00;3.70;;;22.00;99.90;;;;;;1933082;74;21565;-79
2022/05/08 12:34:40;;;;;;;4.15;3.55;;;22.00;99.90;;;;;;1918872;74;21059;-79
2022/05/08 12:37:31;;;;;;;4.22;3.83;;;22.00;99.90;;;;;;1932521;74;21082;-78
2022/05/08 12:40:24;;;;;;;3.50;3.20;;;22.20;99.90;;;;;;1932049;74;21046;-78
2022/05/08 12:43:17;;;;;;;4.35;3.33;;;22.40;99.90;;;;;;1861612;76;21071;-78
2022/05/08 12:46:08;;;;;;;3.17;2.90;;;22.60;99.90;;;;;;1931593;74;21122;-78
2022/05/08 12:49:03;;;;;;;3.75;3.40;;;22.80;99.90;;;;;;1915444;74;21047;-79
2022/05/08 12:51:54;;;;;;;3.12;2.92;;;23.10;99.90;;;;;;1910793;74;21359;-79
2022/05/08 12:54:46;;;;;;;3.30;3.00;;;23.00;99.90;;;;;;1929288;73;21170;-79
2022/05/08 13:00:48;;;;;;;3.40;3.10;;;23.40;99.90;;;;;;1835014;77;21144;-79
2022/05/08 13:03:41;;;;;;;4.35;3.12;;;23.50;99.90;;;;;;1915932;74;21043;-78
2022/05/08 13:06:33;;;;;;;3.47;3.22;;;23.60;99.90;;;;;;1931492;74;21144;-78
2022/05/08 13:09:24;;;;;;;5.12;3.47;;;23.20;99.90;;;;;;1931339;74;21379;-78
2022/05/08 13:12:16;;;;;;;4.92;3.90;;;23.30;99.90;;;;;;1849107;76;21581;-78
2022/05/08 13:15:11;;;;;;;3.85;3.55;;;23.50;99.90;;;;;;1936770;73;21192;-78
2022/05/08 13:18:02;;;;;;;3.87;3.58;;;23.80;99.90;;;;;;1816224;78;21077;-78
2022/05/08 13:20:53;;;;;;;3.70;3.40;;;23.90;99.90;;;;;;1928330;74;21208;-78
2022/05/08 13:23:48;;;;;;;4.12;3.55;;;24.10;99.90;;;;;;1850543;76;21153;-78
2022/05/08 13:26:39;;;;;;;5.33;3.42;;;24.10;99.90;;;;;;1926276;73;21135;-78
2022/05/08 13:29:32;;;;;;;3.92;3.00;;;24.30;99.90;;;;;;1944127;73;21540;-78
2022/05/08 13:32:25;;;;;;;3.80;3.50;;;24.30;99.90;;;;;;1922243;73;21036;-78
2022/05/08 13:35:18;;;;;;;3.50;3.20;;;24.70;99.90;;;;;;1915565;75;21126;-78
2022/05/08 13:38:11;;;;;;;3.55;3.25;;;24.70;99.90;;;;;;1903963;74;21091;-78
2022/05/08 13:41:05;;;;;;;3.62;3.22;;;24.60;99.90;;;;;;1905151;74;21591;-79
2022/05/08 13:43:58;;;;;;;3.77;3.00;;;24.30;99.90;;;;;;1938293;74;21065;-78
2022/05/08 13:49:33;;;;;;;3.70;3.40;;;24.50;99.90;;;;;;1940638;72;22184;-77
2022/05/08 13:52:55;;;;;;;3.40;3.10;;;24.60;99.90;;;;;;1888697;73;21674;-78
2022/05/08 13:56:13;;;;;;;3.65;2.98;;;24.70;99.90;;;;;;1900346;75;21062;-78
2022/05/08 13:59:04;;;;;;;3.50;2.90;;;25.30;99.90;;;;;;1915200;75;21059;-78
2022/05/08 14:02:15;;;;;;;4.10;3.22;;;25.20;99.90;;;;;;1907451;75;21132;-78
2022/05/08 14:05:14;;;;;;;4.22;3.05;;;25.20;99.90;;;;;;1906373;75;21106;-77
2022/05/08 14:08:09;;;;;;;2.83;2.55;;;25.10;99.90;;;;;;1901453;75;21169;-78
2022/05/08 14:11:01;;;;;;;4.08;3.60;;;25.30;99.90;;;;;;1891026;73;21056;-78
2022/05/08 14:13:52;;;;;;;3.20;3.00;;;25.20;99.90;;;;;;1926261;73;21097;-77
2022/05/08 14:16:44;;;;;;;2.60;2.40;;;25.50;99.90;;;;;;1900130;73;21106;-79
2022/05/08 14:19:35;;;;;;;3.27;3.02;;;25.70;99.90;;;;;;1906459;75;21095;-81
2022/05/08 14:22:29;;;;;;;2.87;2.67;;;25.90;99.90;;;;;;1897332;73;21095;-79
2022/05/08 14:25:21;;;;;;;2.47;2.27;;;25.50;99.90;;;;;;1891537;75;21143;-78
2022/05/08 14:28:13;;;;;;;2.98;2.60;;;25.00;99.90;;;;;;1911778;75;21132;-78
2022/05/08 14:37:25;;;;;;;2.60;2.40;;;24.50;99.90;;;;;;1906573;75;21538;-78
2022/05/08 14:40:17;;;;;;;2.50;2.30;;;24.40;99.90;;;;;;1867400;75;21407;-78
2022/05/08 14:43:10;;;;;;;3.67;3.37;;;24.30;99.90;;;;;;1899820;73;21050;-78
2022/05/08 14:46:01;;;;;;;2.98;2.60;;;24.40;99.90;;;;;;1872334;76;21490;-85
2022/05/08 14:48:52;;;;;;;3.55;3.25;;;24.60;99.90;;;;;;1911321;74;21122;-86
2022/05/08 14:51:44;;;;;;;3.30;2.55;;;24.70;99.90;;;;;;1901602;75;21558;-84
2022/05/08 14:54:36;;;;;;;2.85;2.60;;;24.80;99.90;;;;;;1905313;75;21067;-85
2022/05/08 14:57:27;;;;;;;2.30;2.10;;;24.80;99.90;;;;;;1907642;75;21054;-85
2022/05/08 15:00:20;;;;;;;2.00;1.62;;;25.00;99.90;;;;;;1890592;75;21120;-85
2022/05/08 15:03:11;;;;;;;1.90;1.80;;;24.60;99.90;;;;;;1897776;75;21643;-87
2022/05/08 15:06:03;;;;;;;2.33;2.12;;;24.80;99.90;;;;;;1897497;75;21203;-86
2022/05/08 15:08:54;;;;;;;2.35;2.20;;;25.40;99.90;;;;;;1894333;75;21113;-86
2022/05/08 15:11:46;;;;;;;2.67;1.85;;;25.60;99.90;;;;;;1899585;73;21087;-86
2022/05/08 15:14:38;;;;;;;2.05;1.95;;;25.30;99.90;;;;;;1891027;75;21094;-85
2022/05/08 15:17:29;;;;;;;2.35;2.05;;;24.20;99.90;;;;;;1896121;75;21098;-85
2022/05/08 15:20:21;;;;;;;3.20;1.98;;;24.00;99.90;;;;;;1902544;75;21259;-85
2022/05/08 15:23:15;;;;;;;4.33;2.27;;;24.00;99.90;;;;;;1888077;75;21161;-85
2022/05/08 15:26:10;;;;;;;3.87;2.65;;;24.40;99.90;;;;;;1895139;75;21130;-85
2022/05/08 15:29:02;;;;;;;2.65;2.27;;;24.30;99.90;;;;;;1883886;76;21585;-85
2022/05/08 15:31:54;;;;;;;2.15;1.82;;;24.20;99.90;;;;;;1899705;75;21047;-85
2022/05/08 15:34:46;;;;;;;5.33;2.20;;;24.10;99.90;;;;;;1894574;75;21755;-85
2022/05/08 15:37:38;;;;;;;2.22;1.90;;;24.30;99.90;;;;;;1911100;75;21154;-85
2022/05/08 15:40:32;;;;;;;2.95;1.65;;;24.70;99.90;;;;;;1895419;73;21134;-84
2022/05/08 15:43:26;;;;;;;3.42;1.92;;;24.70;99.90;;;;;;1930579;73;21042;-84
2022/05/08 15:46:24;;;;;;;2.10;1.90;;;25.30;99.90;;;;;;1886897;75;21125;-85
2022/05/08 15:49:16;;;;;;;3.47;3.17;;;25.10;99.90;;;;;;1872231;74;21106;-85
2022/05/08 15:52:09;;;;;;;3.20;3.00;;;25.20;99.90;;;;;;1894543;75;21067;-84
2022/05/08 15:55:00;;;;;;;2.20;2.00;;;26.30;99.90;;;;;;1880654;75;21120;-76
2022/05/08 16:00:37;;;;;;;3.72;2.80;;;26.60;99.90;;;;;;1966068;72;22214;-75
2022/05/08 16:03:50;;;;;;;1.72;1.62;;;25.80;99.90;;;;;;1920552;73;21090;-75
2022/05/08 16:06:59;;;;;;;2.50;1.82;;;25.50;99.90;;;;;;1918744;73;21094;-75
2022/05/08 16:09:50;;;;;;;1.60;1.50;;;25.00;99.90;;;;;;1917000;73;21171;-75
2022/05/08 16:25:40;;;;;;;2.85;2.62;;;28.80;98.20;;;;;;1917311;75;21099;-85
2022/05/08 16:28:32;;;;;;;2.75;2.20;;;29.40;96.90;;;;;;1936201;73;21110;-85
2022/05/08 16:31:24;;;;;;;2.50;2.02;;;30.00;95.30;;;;;;1895427;75;21125;-86
2022/05/08 16:34:16;;;;;;;2.30;2.00;;;30.20;93.60;;;;;;1917966;73;21102;-86